Time;durP1;ratioP1;P1;durP2;ratioP2;P2;SDS_P1;SDS_P2;PMS_P1;PMS_P2;Temp;Humidity;BMP_temperature;BMP_pressure;BME280_temperature;BME280_humidity;BME280_pressure;Samples;Min_cycle;Max_cycle;Signal;HPM_P1;HPM_P2
2022/10/22 00:00:09;;;;;;;5.23;4.63;;;10.60;99.90;10.50;100111.00;;;;4948826;28;92729;-71
2022/10/22 00:02:35;;;;;;;6.47;4.43;;;10.60;99.90;10.50;100116.00;;;;4948573;28;93034;-71
2022/10/22 00:05:01;;;;;;;8.63;5.20;;;10.50;99.90;10.40;100122.00;;;;4945260;28;122427;-71
2022/10/22 00:07:26;;;;;;;5.43;4.53;;;10.50;99.90;10.30;100141.00;;;;4939665;28;122357;-71
2022/10/22 00:09:52;;;;;;;9.20;6.03;;;10.40;99.90;10.30;100156.00;;;;4946795;28;108601;-71
2022/10/22 00:12:18;;;;;;;13.93;6.13;;;10.40;99.90;10.30;100146.00;;;;4945327;28;93211;-71
2022/10/22 00:14:44;;;;;;;5.87;4.07;;;10.40;99.90;10.20;100135.00;;;;4950425;28;94048;-72
2022/10/22 00:17:10;;;;;;;9.87;5.10;;;10.30;99.90;10.30;100142.00;;;;4948081;28;121934;-71
2022/10/22 00:19:36;;;;;;;12.33;6.13;;;10.30;99.90;10.30;100152.00;;;;4946476;28;109985;-72
2022/10/22 00:22:04;;;;;;;6.47;5.70;;;10.40;99.90;10.30;100139.00;;;;4946929;28;109129;-72
2022/10/22 00:24:31;;;;;;;11.20;7.10;;;10.40;99.90;10.40;100140.00;;;;4942295;28;94103;-71
2022/10/22 00:26:57;;;;;;;9.73;6.90;;;10.40;99.90;10.40;100125.00;;;;4943795;28;95453;-72
2022/10/22 00:29:23;;;;;;;7.47;6.13;;;10.40;99.90;10.40;100128.00;;;;4954334;28;101114;-72
2022/10/22 00:31:49;;;;;;;10.17;6.33;;;10.40;99.90;10.50;100116.00;;;;4966703;28;109816;-72
2022/10/22 00:34:18;;;;;;;8.60;5.93;;;10.50;99.90;10.50;100127.00;;;;4948262;28;93467;-72
2022/10/22 00:36:44;;;;;;;7.37;6.27;;;10.50;99.90;10.50;100126.00;;;;4953100;28;92818;-72
2022/10/22 00:39:11;;;;;;;6.07;5.17;;;10.60;99.90;10.60;100105.00;;;;4951092;28;92861;-72
2022/10/22 00:41:38;;;;;;;12.10;6.33;;;10.60;99.90;10.60;100101.00;;;;4946401;28;93876;-72
2022/10/22 00:44:05;;;;;;;12.83;6.73;;;10.70;99.90;10.60;100095.00;;;;4948441;28;94306;-71
2022/10/22 00:46:31;;;;;;;13.00;7.37;;;10.60;99.90;10.60;100101.00;;;;4944146;28;93369;-72
2022/10/22 00:49:01;;;;;;;12.43;8.23;;;10.60;99.90;10.50;100112.00;;;;4952802;28;94825;-72
2022/10/22 00:51:31;;;;;;;12.87;7.67;;;10.60;99.90;10.50;100116.00;;;;4952848;28;92749;-72
2022/10/22 00:54:03;;;;;;;8.73;5.63;;;10.60;99.90;10.60;100112.00;;;;4958631;28;112984;-72
2022/10/22 00:56:29;;;;;;;11.53;6.07;;;10.60;99.90;10.60;100113.00;;;;4949185;28;98942;-72
2022/10/22 00:58:58;;;;;;;8.87;5.97;;;10.60;99.90;10.60;100101.00;;;;4951587;28;92157;-72
2022/10/22 01:01:29;;;;;;;9.47;5.53;;;10.60;99.90;10.60;100103.00;;;;4946951;28;92821;-72
2022/10/22 01:03:55;;;;;;;10.83;7.03;;;10.70;99.90;10.60;100100.00;;;;4942048;28;93748;-72
2022/10/22 01:06:28;;;;;;;8.07;6.03;;;10.60;99.90;10.60;100089.00;;;;4948464;28;122391;-72
2022/10/22 01:09:20;;;;;;;7.90;5.23;;;10.60;99.90;10.50;100103.00;;;;4969944;28;92833;-72
2022/10/22 01:12:17;;;;;;;8.63;6.07;;;10.60;99.90;10.50;100110.00;;;;4967472;28;92950;-72
2022/10/22 01:15:16;;;;;;;14.83;8.03;;;10.60;99.90;10.50;100110.00;;;;4950857;28;113460;-72
2022/10/22 01:17:55;;;;;;;9.13;6.10;;;10.60;99.90;10.50;100118.00;;;;4978258;28;95212;-72
2022/10/22 01:20:50;;;;;;;9.50;6.63;;;10.60;99.90;10.50;100119.00;;;;4950498;28;99693;-72
2022/10/22 01:23:38;;;;;;;8.70;5.87;;;10.60;99.90;10.50;100109.00;;;;4950027;28;93041;-72
2022/10/22 01:26:25;;;;;;;7.90;5.30;;;10.60;99.90;10.50;100121.00;;;;4950528;28;92008;-72
2022/10/22 01:29:18;;;;;;;9.17;5.67;;;10.60;99.90;10.50;100114.00;;;;4939627;28;92747;-72
2022/10/22 01:31:55;;;;;;;7.10;5.00;;;10.60;99.90;10.60;100106.00;;;;4951077;28;95012;-72
2022/10/22 01:34:23;;;;;;;8.13;5.60;;;10.70;99.90;10.60;100114.00;;;;4966407;28;93869;-72
2022/10/22 01:36:51;;;;;;;5.90;5.17;;;10.70;99.90;10.70;100106.00;;;;4951657;28;122577;-72
2022/10/22 01:39:18;;;;;;;7.57;5.83;;;10.70;99.90;10.70;100114.00;;;;4941012;28;122899;-72
2022/10/22 01:41:44;;;;;;;7.97;5.43;;;10.80;99.90;10.80;100112.00;;;;4952827;28;95435;-72
2022/10/22 01:44:32;;;;;;;8.60;5.67;;;10.80;99.90;10.80;100113.00;;;;4948052;28;93205;-71
2022/10/22 01:47:15;;;;;;;11.30;6.27;;;10.90;99.90;10.80;100102.00;;;;4977428;28;101171;-71
2022/10/22 01:50:27;;;;;;;7.27;5.20;;;10.90;99.90;10.80;100105.00;;;;4945246;28;93861;-71
2022/10/22 01:53:32;;;;;;;9.53;5.87;;;10.90;99.90;10.80;100108.00;;;;4947240;28;92306;-71
2022/10/22 01:56:21;;;;;;;8.67;5.50;;;10.90;99.90;10.90;100104.00;;;;4967109;28;93164;-71
2022/10/22 01:59:32;;;;;;;8.13;5.60;;;10.90;99.90;10.90;100094.00;;;;4944556;28;94005;-71
2022/10/22 02:02:09;;;;;;;9.43;5.97;;;11.00;99.90;10.90;100104.00;;;;4938260;28;93789;-71
2022/10/22 02:04:45;;;;;;;7.87;5.83;;;11.00;99.90;11.00;100106.00;;;;4951633;28;92756;-71
2022/10/22 02:07:15;;;;;;;6.27;5.17;;;11.00;99.90;11.00;100104.00;;;;4952208;28;93131;-71
2022/10/22 02:09:42;;;;;;;9.97;6.17;;;11.00;99.90;11.10;100107.00;;;;4951953;28;116533;-71
2022/10/22 02:12:09;;;;;;;8.40;5.50;;;11.10;99.90;11.10;100110.00;;;;4948151;28;122466;-71
2022/10/22 02:14:40;;;;;;;8.17;5.67;;;11.10;99.90;11.20;100108.00;;;;4963685;28;108871;-71
2022/10/22 02:17:10;;;;;;;7.27;5.37;;;11.20;99.90;11.20;100108.00;;;;4963516;28;93260;-71
2022/10/22 02:19:58;;;;;;;8.90;5.40;;;11.20;99.90;11.20;100098.00;;;;4951696;28;111422;-71
2022/10/22 02:22:26;;;;;;;8.10;6.07;;;11.30;99.90;11.30;100105.00;;;;4962082;28;114732;-71
2022/10/22 02:24:52;;;;;;;6.30;5.23;;;11.30;99.90;11.40;100112.00;;;;4951589;28;93113;-71
2022/10/22 02:27:29;;;;;;;8.07;4.23;;;11.40;99.90;11.40;100111.00;;;;4946658;28;93907;-71
2022/10/22 02:30:04;;;;;;;6.60;5.17;;;11.40;99.90;11.40;100104.00;;;;4950648;28;112659;-70
2022/10/22 02:32:42;;;;;;;5.27;4.30;;;11.50;99.90;11.50;100103.00;;;;4950695;28;93181;-70
2022/10/22 02:35:12;;;;;;;6.97;4.77;;;11.50;99.90;11.50;100098.00;;;;4946971;28;101702;-70
2022/10/22 02:37:39;;;;;;;10.20;5.67;;;11.50;99.90;11.60;100097.00;;;;4950333;28;96489;-70
2022/10/22 02:40:06;;;;;;;7.57;6.20;;;11.60;99.90;11.60;100097.00;;;;4947377;28;122941;-70
2022/10/22 02:42:33;;;;;;;9.07;6.03;;;11.60;99.90;11.60;100096.00;;;;4948006;28;112292;-71
2022/10/22 02:44:59;;;;;;;9.27;5.63;;;11.60;99.90;11.70;100093.00;;;;4951127;28;110442;-71
2022/10/22 02:47:25;;;;;;;6.87;5.37;;;11.70;99.90;11.70;100098.00;;;;4947710;28;108962;-71
2022/10/22 02:49:50;;;;;;;8.27;5.93;;;12.10;99.90;11.80;100099.00;;;;4947217;28;123937;-71
2022/10/22 02:52:16;;;;;;;9.63;6.17;;;11.80;99.90;11.80;100105.00;;;;4949882;28;122440;-70
2022/10/22 02:54:41;;;;;;;7.00;5.30;;;11.80;99.90;11.80;100095.00;;;;4951989;28;96098;-70
2022/10/22 02:57:07;;;;;;;10.30;6.63;;;11.80;99.90;11.90;100096.00;;;;4948847;28;107850;-70
2022/10/22 02:59:33;;;;;;;8.37;5.73;;;11.90;99.90;11.90;100087.00;;;;4951398;28;111467;-70
2022/10/22 03:01:58;;;;;;;7.83;5.20;;;11.90;99.90;11.90;100086.00;;;;4947871;28;95368;-70
2022/10/22 03:04:24;;;;;;;14.33;5.53;;;11.90;99.90;12.00;100088.00;;;;4942245;28;109963;-70
2022/10/22 03:06:50;;;;;;;9.07;5.50;;;12.00;99.90;12.00;100094.00;;;;4944078;28;92851;-71
2022/10/22 03:09:16;;;;;;;6.07;5.00;;;12.00;99.90;12.00;100095.00;;;;4939756;28;121216;-70
2022/10/22 03:11:41;;;;;;;8.17;4.93;;;12.00;99.90;12.10;100099.00;;;;4945787;28;113831;-70
2022/10/22 03:14:07;;;;;;;7.40;4.70;;;12.10;99.90;12.10;100103.00;;;;4951284;28;101283;-70
2022/10/22 03:16:33;;;;;;;8.00;5.40;;;12.10;99.90;12.10;100101.00;;;;4950428;28;109793;-70
2022/10/22 03:19:00;;;;;;;7.27;5.57;;;12.10;99.90;12.10;100097.00;;;;4944608;28;122902;-71
2022/10/22 03:21:48;;;;;;;9.57;4.97;;;12.20;99.90;12.10;100093.00;;;;4949663;28;94030;-70
2022/10/22 03:24:20;;;;;;;8.70;5.73;;;11.90;99.90;12.20;100095.00;;;;4944311;28;92879;-70
2022/10/22 03:26:48;;;;;;;11.53;5.27;;;12.30;99.90;12.20;100087.00;;;;4940213;28;92721;-70
2022/10/22 03:29:15;;;;;;;8.70;5.60;;;12.20;99.90;12.20;100090.00;;;;4947450;28;93395;-71
2022/10/22 03:31:40;;;;;;;5.67;5.17;;;12.20;99.90;12.20;100082.00;;;;4949598;28;121742;-70
2022/10/22 03:34:06;;;;;;;10.60;5.43;;;12.30;99.90;12.30;100081.00;;;;4950503;28;92265;-70
2022/10/22 03:36:32;;;;;;;12.10;6.37;;;12.30;99.90;12.30;100087.00;;;;4949419;28;92789;-71
2022/10/22 03:39:00;;;;;;;9.63;6.50;;;12.30;99.90;12.30;100077.00;;;;4945089;28;122730;-70
2022/10/22 03:41:27;;;;;;;8.97;5.43;;;12.30;99.90;12.30;100080.00;;;;4934794;28;95703;-70
2022/10/22 03:43:54;;;;;;;9.43;5.03;;;12.30;99.90;12.20;100084.00;;;;4943176;28;110978;-70
2022/10/22 03:46:19;;;;;;;9.47;6.10;;;12.30;99.90;12.20;100084.00;;;;4942948;28;92837;-70
2022/10/22 03:48:45;;;;;;;6.00;4.50;;;12.30;99.90;12.20;100090.00;;;;4950793;28;123430;-70
2022/10/22 03:51:11;;;;;;;8.63;6.20;;;12.30;99.90;12.20;100105.00;;;;4947409;28;122537;-69
2022/10/22 03:53:37;;;;;;;9.13;5.20;;;12.20;99.90;12.20;100103.00;;;;4943920;28;109965;-70
2022/10/22 03:56:11;;;;;;;7.83;5.30;;;12.30;99.90;12.20;100102.00;;;;4950153;28;101374;-70
2022/10/22 03:58:39;;;;;;;7.27;5.47;;;12.20;99.90;12.20;100125.00;;;;4948952;28;109763;-70
2022/10/22 04:01:08;;;;;;;11.37;4.87;;;12.20;99.90;12.20;100119.00;;;;4945271;28;112687;-70
2022/10/22 04:03:34;;;;;;;10.10;5.13;;;12.20;99.90;12.20;100115.00;;;;4945005;28;92869;-70
2022/10/22 04:06:07;;;;;;;5.33;4.73;;;12.20;99.90;12.20;100129.00;;;;4940293;28;93812;-70
2022/10/22 04:08:33;;;;;;;6.50;4.67;;;12.30;99.90;12.20;100117.00;;;;4946056;28;93784;-70
2022/10/22 04:10:59;;;;;;;5.97;4.67;;;12.20;99.90;12.20;100128.00;;;;4951233;28;93243;-69
2022/10/22 04:13:25;;;;;;;5.90;4.37;;;12.20;99.90;12.30;100125.00;;;;4947128;28;110649;-70
2022/10/22 04:15:50;;;;;;;9.10;5.47;;;12.30;99.90;12.30;100128.00;;;;4946754;28;92737;-70
2022/10/22 04:18:21;;;;;;;8.30;5.37;;;12.30;99.90;12.40;100120.00;;;;4951442;28;93128;-70
2022/10/22 04:20:47;;;;;;;14.47;5.90;;;12.40;99.90;12.40;100123.00;;;;4946034;28;114188;-69
2022/10/22 04:23:13;;;;;;;9.10;4.80;;;12.40;99.90;12.50;100136.00;;;;4952695;28;92005;-70
2022/10/22 04:25:39;;;;;;;8.43;6.27;;;12.40;99.90;12.50;100132.00;;;;4943725;28;95348;-69
2022/10/22 04:28:09;;;;;;;8.83;5.73;;;12.50;99.90;12.60;100136.00;;;;4941637;28;112950;-69
2022/10/22 04:30:35;;;;;;;9.30;5.63;;;12.60;99.90;12.60;100131.00;;;;4946485;28;121845;-69
2022/10/22 04:33:01;;;;;;;11.07;5.07;;;12.60;99.90;12.70;100145.00;;;;4950490;28;112082;-69
2022/10/22 04:35:28;;;;;;;8.43;5.77;;;12.60;99.90;12.70;100146.00;;;;4946059;28;92717;-69
2022/10/22 04:37:55;;;;;;;8.97;5.37;;;12.70;99.90;12.70;100151.00;;;;4948709;28;94180;-69
2022/10/22 04:40:20;;;;;;;7.00;5.10;;;12.70;99.90;12.80;100137.00;;;;4948111;28;93126;-69
2022/10/22 04:42:46;;;;;;;13.33;5.57;;;12.80;99.90;12.80;100133.00;;;;4945448;28;110961;-69
2022/10/22 04:45:14;;;;;;;8.37;6.63;;;12.80;99.90;12.80;100136.00;;;;4940794;28;109080;-69
2022/10/22 04:47:40;;;;;;;7.80;4.77;;;12.90;99.90;12.90;100134.00;;;;4947079;28;92857;-69
2022/10/22 04:50:06;;;;;;;11.00;4.97;;;12.90;99.90;12.90;100130.00;;;;4940741;28;106676;-69
2022/10/22 04:52:32;;;;;;;6.90;4.80;;;12.90;99.90;12.90;100117.00;;;;4948446;28;93265;-69
2022/10/22 04:54:57;;;;;;;7.37;4.60;;;12.90;99.90;13.00;100124.00;;;;4948404;28;108309;-68
2022/10/22 04:57:23;;;;;;;7.17;5.30;;;13.00;99.90;13.00;100116.00;;;;4944781;28;122510;-69
2022/10/22 04:59:49;;;;;;;11.03;6.37;;;13.00;99.90;13.00;100112.00;;;;4945990;28;123043;-69
2022/10/22 05:02:14;;;;;;;10.73;5.53;;;13.00;99.90;13.00;100122.00;;;;4948213;28;109876;-68
2022/10/22 05:04:43;;;;;;;30.97;17.43;;;13.00;99.90;13.00;100131.00;;;;4947622;28;93000;-69
2022/10/22 05:07:08;;;;;;;17.27;8.13;;;13.00;99.90;12.90;100126.00;;;;4949812;28;93544;-68
2022/10/22 05:09:34;;;;;;;13.07;6.43;;;13.00;99.90;12.90;100130.00;;;;4938700;28;123330;-68
2022/10/22 05:12:00;;;;;;;9.23;4.93;;;12.90;99.90;12.90;100130.00;;;;4943309;28;109764;-68
2022/10/22 05:14:26;;;;;;;11.33;6.47;;;12.90;99.90;12.90;100130.00;;;;4951838;28;100420;-68
2022/10/22 05:16:52;;;;;;;11.10;7.10;;;12.90;99.90;12.80;100137.00;;;;4946242;28;93332;-68
2022/10/22 05:19:25;;;;;;;8.37;5.53;;;12.80;99.90;12.80;100129.00;;;;4944425;28;93757;-68
2022/10/22 05:21:54;;;;;;;5.87;5.20;;;12.90;99.90;12.80;100127.00;;;;4950199;28;93280;-68
2022/10/22 05:24:20;;;;;;;9.57;5.73;;;12.80;99.90;12.80;100128.00;;;;4947932;28;92930;-68
2022/10/22 05:26:49;;;;;;;7.60;4.93;;;12.80;99.90;12.80;100124.00;;;;4942974;28;93425;-68
2022/10/22 05:29:15;;;;;;;7.37;5.47;;;12.80;99.90;12.80;100116.00;;;;4953239;28;93697;-68
2022/10/22 05:31:41;;;;;;;10.37;5.37;;;12.80;99.90;12.70;100110.00;;;;4949479;28;110009;-68
2022/10/22 05:34:07;;;;;;;9.53;5.60;;;12.80;99.90;12.70;100140.00;;;;4948172;28;109597;-68
2022/10/22 05:36:32;;;;;;;9.80;4.77;;;12.70;99.90;12.70;100133.00;;;;4951701;28;93163;-68
2022/10/22 05:38:58;;;;;;;7.60;4.93;;;12.70;99.90;12.70;100137.00;;;;4949035;28;101044;-68
2022/10/22 05:41:26;;;;;;;8.20;4.70;;;12.70;99.90;12.60;100140.00;;;;4943998;28;92696;-68
2022/10/22 05:43:55;;;;;;;6.83;4.63;;;12.60;99.90;12.60;100147.00;;;;4949118;28;94145;-68
2022/10/22 05:46:23;;;;;;;6.33;4.70;;;12.60;99.90;12.60;100148.00;;;;4949593;28;94047;-68
2022/10/22 05:49:03;;;;;;;9.13;5.67;;;12.60;99.90;12.50;100155.00;;;;4947911;28;114645;-68
2022/10/22 05:51:33;;;;;;;5.43;4.27;;;12.50;99.90;12.50;100157.00;;;;4953156;28;92832;-68
2022/10/22 05:54:02;;;;;;;8.40;4.97;;;12.50;99.90;12.40;100153.00;;;;4951647;28;92809;-68
2022/10/22 05:56:30;;;;;;;8.17;4.57;;;12.50;99.90;12.40;100160.00;;;;4948968;28;94514;-68
2022/10/22 05:58:56;;;;;;;7.50;4.87;;;12.40;99.90;12.40;100156.00;;;;4948490;28;94259;-68
2022/10/22 06:01:29;;;;;;;9.87;5.27;;;12.50;99.90;12.40;100164.00;;;;4949019;28;92752;-68
2022/10/22 06:04:00;;;;;;;6.77;5.13;;;12.40;99.90;12.40;100173.00;;;;4945505;28;93213;-68
2022/10/22 06:06:38;;;;;;;6.23;5.10;;;12.40;99.90;12.50;100170.00;;;;4944415;28;93690;-68
2022/10/22 06:09:21;;;;;;;10.93;5.23;;;12.50;99.90;12.50;100167.00;;;;4948828;28;96160;-68
2022/10/22 06:11:47;;;;;;;7.83;5.43;;;12.50;99.90;12.50;100176.00;;;;4964312;28;97234;-67
2022/10/22 06:14:14;;;;;;;5.77;5.17;;;12.50;99.90;12.60;100185.00;;;;4950757;28;93140;-67
2022/10/22 06:16:40;;;;;;;10.47;5.63;;;12.60;99.90;12.60;100183.00;;;;4946814;28;114701;-68
2022/10/22 06:19:12;;;;;;;11.50;7.00;;;12.60;99.90;12.60;100176.00;;;;4946589;28;93308;-67
2022/10/22 06:21:38;;;;;;;9.70;5.80;;;12.60;99.90;12.60;100174.00;;;;4061349;28;10000564;-68
2022/10/22 06:24:05;;;;;;;7.10;5.80;;;12.70;99.90;12.70;100183.00;;;;4945104;28;93127;-67
2022/10/22 06:26:31;;;;;;;9.23;6.10;;;12.70;99.90;12.70;100189.00;;;;4940304;28;92217;-67
2022/10/22 06:28:57;;;;;;;8.70;5.50;;;12.70;99.90;12.70;100185.00;;;;4948741;28;92832;-67
2022/10/22 06:31:24;;;;;;;8.33;5.33;;;12.70;99.90;12.80;100190.00;;;;4948192;28;93766;-67
2022/10/22 06:33:50;;;;;;;8.63;6.50;;;12.70;99.90;12.80;100193.00;;;;4947164;28;114456;-67
2022/10/22 06:36:21;;;;;;;9.03;5.97;;;12.80;99.90;12.80;100194.00;;;;4950013;28;92702;-67
2022/10/22 06:38:50;;;;;;;9.37;6.87;;;12.80;99.90;12.80;100197.00;;;;4948989;28;92944;-67
2022/10/22 06:41:16;;;;;;;6.00;4.90;;;12.90;99.90;12.90;100198.00;;;;4945631;28;113178;-67
2022/10/22 06:43:44;;;;;;;8.17;5.70;;;12.90;99.90;13.00;100195.00;;;;4947095;28;122315;-67
2022/10/22 06:46:11;;;;;;;7.83;5.37;;;12.90;99.90;13.00;100203.00;;;;4940185;28;92723;-67
2022/10/22 06:48:38;;;;;;;6.33;5.60;;;13.00;99.90;13.00;100203.00;;;;4939120;28;92906;-67
2022/10/22 06:51:10;;;;;;;12.57;7.10;;;13.00;99.90;13.10;100202.00;;;;4944361;28;93649;-67
2022/10/22 06:53:38;;;;;;;9.27;5.63;;;13.10;99.90;13.10;100210.00;;;;4948898;28;93158;-67
2022/10/22 06:56:10;;;;;;;12.40;6.03;;;13.10;99.90;13.20;100220.00;;;;4947468;28;92805;-66
2022/10/22 06:58:35;;;;;;;7.13;4.97;;;13.10;99.90;13.20;100214.00;;;;4948394;28;93845;-66
2022/10/22 07:01:10;;;;;;;10.60;6.43;;;13.20;99.90;13.20;100219.00;;;;4945502;28;121237;-66
2022/10/22 07:03:37;;;;;;;6.67;4.97;;;13.20;99.90;13.30;100223.00;;;;4945468;28;94119;-66
2022/10/22 07:06:07;;;;;;;11.17;5.53;;;13.30;99.90;13.30;100232.00;;;;4946625;28;102825;-66
2022/10/22 07:08:34;;;;;;;7.07;4.63;;;13.30;99.90;13.30;100233.00;;;;4949650;28;93571;-66
2022/10/22 07:11:09;;;;;;;7.37;5.97;;;13.30;99.90;13.30;100228.00;;;;4942183;28;93799;-66
2022/10/22 07:13:35;;;;;;;10.93;6.23;;;13.30;99.90;13.30;100225.00;;;;4945601;28;94143;-66
2022/10/22 07:16:02;;;;;;;6.73;5.33;;;13.30;99.90;13.40;100223.00;;;;4946963;28;109785;-66
2022/10/22 07:18:29;;;;;;;10.30;6.00;;;13.40;99.90;13.40;100236.00;;;;4948757;28;93072;-66
2022/10/22 07:20:55;;;;;;;6.20;5.57;;;13.40;99.90;13.50;100240.00;;;;4945817;28;93232;-66
2022/10/22 07:23:21;;;;;;;7.57;5.27;;;13.40;99.90;13.50;100258.00;;;;4940394;28;123766;-66
2022/10/22 07:25:46;;;;;;;8.43;5.37;;;13.50;99.90;13.60;100259.00;;;;4946599;28;111700;-65
2022/10/22 07:28:13;;;;;;;7.20;4.63;;;13.50;99.90;13.60;100252.00;;;;4950104;28;93115;-65
2022/10/22 07:30:40;;;;;;;7.93;5.13;;;13.60;99.90;13.70;100261.00;;;;4948600;28;123494;-65
2022/10/22 07:33:06;;;;;;;6.17;4.43;;;13.60;99.90;13.70;100272.00;;;;4943737;28;93471;-65
2022/10/22 07:35:33;;;;;;;9.30;5.43;;;13.70;99.90;13.80;100262.00;;;;4946950;28;93111;-65
2022/10/22 07:37:59;;;;;;;8.70;4.97;;;13.80;99.90;13.90;100267.00;;;;4948586;28;93019;-65
2022/10/22 07:40:25;;;;;;;6.30;5.37;;;13.80;99.90;13.90;100272.00;;;;4948337;28;113888;-65
2022/10/22 07:42:50;;;;;;;9.17;5.70;;;13.80;99.90;13.90;100263.00;;;;4943939;28;121789;-65
2022/10/22 07:45:16;;;;;;;7.93;5.67;;;13.90;99.90;14.00;100269.00;;;;4938814;28;110621;-65
2022/10/22 07:47:42;;;;;;;6.57;4.83;;;13.90;99.90;14.00;100262.00;;;;4944590;28;107159;-64
2022/10/22 07:50:08;;;;;;;6.53;5.00;;;14.00;99.90;14.00;100282.00;;;;4981932;28;93314;-64
2022/10/22 07:52:34;;;;;;;6.97;4.97;;;14.00;99.90;14.00;100283.00;;;;4983180;28;105186;-64
2022/10/22 07:54:59;;;;;;;7.47;5.13;;;14.00;99.90;14.10;100285.00;;;;4982862;28;109461;-65
2022/10/22 07:57:25;;;;;;;5.80;4.47;;;14.10;99.90;14.10;100269.00;;;;4982823;28;108047;-64
2022/10/22 07:59:51;;;;;;;6.90;5.47;;;14.10;99.90;14.20;100284.00;;;;4979821;28;122060;-64
2022/10/22 08:02:16;;;;;;;7.43;5.00;;;14.10;99.90;14.20;100284.00;;;;4981789;28;121261;-64
2022/10/22 08:04:42;;;;;;;9.40;5.53;;;14.20;99.90;14.20;100285.00;;;;4978887;28;109771;-64
2022/10/22 08:07:08;;;;;;;10.40;4.60;;;14.20;99.90;14.30;100288.00;;;;4974109;28;108414;-64
2022/10/22 08:09:33;;;;;;;9.27;5.60;;;14.30;99.90;14.30;100274.00;;;;4978028;28;122623;-64
2022/10/22 08:11:59;;;;;;;9.90;5.10;;;14.30;99.90;14.40;100283.00;;;;4981467;28;93631;-64
2022/10/22 08:14:25;;;;;;;7.00;5.37;;;14.30;99.90;14.40;100276.00;;;;4984446;28;110317;-64
2022/10/22 08:16:51;;;;;;;9.97;4.63;;;14.40;99.90;14.50;100284.00;;;;4980988;28;108376;-64
2022/10/22 08:19:17;;;;;;;8.00;5.37;;;14.40;99.90;14.50;100297.00;;;;4980484;28;93106;-64
2022/10/22 08:21:44;;;;;;;7.57;4.63;;;14.40;99.90;14.50;100298.00;;;;4978618;28;93258;-64
2022/10/22 08:24:10;;;;;;;6.13;4.57;;;14.50;99.90;14.60;100316.00;;;;4978099;28;92402;-64
2022/10/22 08:26:36;;;;;;;9.30;6.32;;;14.50;99.90;14.60;100319.00;;;;4983104;28;92909;-64
2022/10/22 08:29:02;;;;;;;7.13;4.75;;;14.50;99.90;14.60;100310.00;;;;4973414;28;119857;-64
2022/10/22 08:31:28;;;;;;;7.75;4.85;;;14.60;99.90;14.60;100318.00;;;;4977290;28;92538;-64
2022/10/22 08:33:53;;;;;;;9.50;5.70;;;14.60;99.90;14.70;100320.00;;;;4982529;28;110216;-63
2022/10/22 08:36:19;;;;;;;9.07;4.73;;;14.60;99.90;14.70;100319.00;;;;4982414;28;108768;-63
2022/10/22 08:38:44;;;;;;;8.07;5.20;;;14.60;99.90;14.70;100317.00;;;;4982879;28;119804;-63
2022/10/22 08:41:18;;;;;;;9.98;5.55;;;14.70;99.90;14.70;100320.00;;;;4983628;28;122209;-63
2022/10/22 08:44:00;;;;;;;7.63;5.00;;;14.70;99.90;14.80;100335.00;;;;4975497;28;100790;-63
2022/10/22 08:46:58;;;;;;;7.50;3.97;;;14.70;99.90;14.80;100336.00;;;;4982640;28;92572;-63
2022/10/22 08:49:36;;;;;;;6.77;4.90;;;14.80;99.90;14.90;100340.00;;;;4984430;28;93716;-63
2022/10/22 08:52:02;;;;;;;10.33;3.93;;;14.80;99.90;14.90;100331.00;;;;4979048;28;93647;-63
2022/10/22 08:54:54;;;;;;;7.10;5.20;;;14.90;99.90;15.00;100340.00;;;;4987021;28;91479;-63
2022/10/22 08:58:21;;;;;;;8.10;4.53;;;14.90;99.90;15.00;100345.00;;;;4985401;28;92404;-63
2022/10/22 09:00:58;;;;;;;7.50;4.15;;;14.90;99.90;15.00;100349.00;;;;4971758;28;92948;-63
2022/10/22 09:03:50;;;;;;;7.43;5.13;;;15.00;99.90;15.00;100351.00;;;;4983030;28;93491;-63
2022/10/22 09:06:23;;;;;;;6.70;4.60;;;15.00;99.90;15.00;100349.00;;;;4993533;28;92768;-63
2022/10/22 09:08:51;;;;;;;6.45;3.60;;;15.00;99.90;15.10;100344.00;;;;4985454;28;92576;-63
2022/10/22 09:11:41;;;;;;;5.35;4.45;;;15.00;99.90;15.00;100345.00;;;;4984696;28;93680;-63
2022/10/22 09:14:21;;;;;;;8.20;4.82;;;15.00;99.90;15.10;100348.00;;;;4984121;28;92639;-63
2022/10/22 09:17:34;;;;;;;5.20;4.37;;;15.00;99.90;15.00;100352.00;;;;4983520;28;104216;-64
2022/10/22 09:20:09;;;;;;;7.63;5.32;;;15.00;99.90;15.10;100349.00;;;;4984778;28;92619;-63
2022/10/22 09:22:47;;;;;;;8.00;4.00;;;15.00;99.90;15.10;100348.00;;;;4985308;28;92789;-63
2022/10/22 09:25:24;;;;;;;5.45;4.50;;;15.00;99.90;15.10;100343.00;;;;4981418;28;92781;-63
2022/10/22 09:27:53;;;;;;;6.70;4.33;;;15.10;99.90;15.10;100347.00;;;;4982113;28;103302;-63
2022/10/22 09:30:22;;;;;;;6.68;5.25;;;15.10;99.90;15.10;100346.00;;;;4992742;28;93626;-63
2022/10/22 09:33:17;;;;;;;6.28;4.68;;;15.10;99.90;15.10;100350.00;;;;4985150;28;92871;-63
2022/10/22 09:35:54;;;;;;;5.18;4.55;;;15.10;99.90;15.20;100352.00;;;;4986456;28;93020;-63
2022/10/22 09:38:39;;;;;;;6.88;5.55;;;15.10;99.90;15.20;100358.00;;;;4988969;28;92789;-63
2022/10/22 09:41:07;;;;;;;6.00;4.43;;;15.10;99.90;15.20;100347.00;;;;4985426;28;92318;-63
2022/10/22 09:43:34;;;;;;;7.10;4.82;;;15.10;99.90;15.20;100361.00;;;;4989113;28;108449;-63
2022/10/22 09:46:04;;;;;;;6.07;3.30;;;15.10;99.90;15.20;100348.00;;;;4985092;28;93233;-63
2022/10/22 09:48:40;;;;;;;4.47;4.05;;;15.10;99.90;15.20;100354.00;;;;4982744;28;93141;-63
2022/10/22 09:51:47;;;;;;;9.32;5.18;;;15.20;99.90;15.30;100358.00;;;;4989144;28;96478;-63
2022/10/22 09:54:30;;;;;;;8.70;4.20;;;15.20;99.90;15.30;100352.00;;;;4973196;28;93580;-63
2022/10/22 09:57:02;;;;;;;5.63;4.28;;;15.30;99.90;15.40;100350.00;;;;4983750;28;93407;-62
2022/10/22 09:59:36;;;;;;;6.13;4.13;;;15.40;99.90;15.40;100351.00;;;;4987093;28;105621;-63
2022/10/22 10:02:08;;;;;;;5.90;3.80;;;15.40;99.90;15.50;100347.00;;;;4984852;28;97964;-63
2022/10/22 10:04:50;;;;;;;3.08;2.72;;;15.40;99.90;15.50;100343.00;;;;4986442;28;92722;-63
2022/10/22 10:07:20;;;;;;;3.88;2.97;;;15.40;99.90;15.50;100343.00;;;;4984629;28;108213;-63
2022/10/22 10:09:47;;;;;;;5.85;3.90;;;15.40;99.90;15.60;100335.00;;;;4982679;28;108018;-62
2022/10/22 10:12:18;;;;;;;3.95;2.90;;;15.50;99.90;15.60;100334.00;;;;4987998;28;96945;-63
2022/10/22 10:15:18;;;;;;;4.13;2.90;;;15.50;99.90;15.60;100336.00;;;;5003145;28;113831;-62
2022/10/22 10:18:21;;;;;;;5.93;3.60;;;15.50;99.90;15.70;100357.00;;;;4983056;28;113857;-62
2022/10/22 10:21:30;;;;;;;4.90;3.50;;;15.60;99.90;15.70;100350.00;;;;4985530;28;92360;-63
2022/10/22 10:24:20;;;;;;;3.83;2.70;;;15.60;99.90;15.80;100349.00;;;;4960503;28;93574;-63
2022/10/22 10:27:11;;;;;;;1.75;1.65;;;15.70;99.90;15.80;100339.00;;;;4981984;28;116082;-62
2022/10/22 10:30:09;;;;;;;2.65;2.30;;;15.70;99.90;15.90;100337.00;;;;4982856;28;93472;-62
2022/10/22 10:33:09;;;;;;;2.50;1.80;;;15.80;99.90;16.20;100339.00;;;;4985507;28;92539;-63
2022/10/22 10:36:02;;;;;;;1.67;1.38;;;16.00;99.90;16.50;100342.00;;;;4991165;28;92540;-62
2022/10/22 10:38:42;;;;;;;2.03;1.10;;;16.20;99.90;16.70;100334.00;;;;4984226;28;93766;-63
2022/10/22 10:41:27;;;;;;;1.95;1.40;;;16.50;99.90;16.80;100345.00;;;;4983137;28;114559;-63
2022/10/22 10:44:14;;;;;;;1.40;1.30;;;16.70;99.90;16.90;100344.00;;;;4986103;28;92538;-62
2022/10/22 10:47:25;;;;;;;2.30;1.15;;;16.80;99.90;16.90;100346.00;;;;4984676;28;92600;-62
2022/10/22 10:50:04;;;;;;;2.20;1.50;;;16.80;99.90;16.90;100350.00;;;;5000820;28;98000;-63
2022/10/22 10:52:44;;;;;;;1.52;1.17;;;16.80;99.90;16.90;100349.00;;;;4996916;28;111038;-62
2022/10/22 10:55:31;;;;;;;1.00;1.00;;;16.80;99.90;16.90;100356.00;;;;5002101;28;93248;-62
2022/10/22 10:58:40;;;;;;;1.48;1.00;;;16.80;99.90;16.90;100358.00;;;;4982435;28;92757;-63
2022/10/22 11:01:27;;;;;;;1.50;1.00;;;16.80;99.90;17.00;100360.00;;;;4985715;28;117809;-62
2022/10/22 11:04:19;;;;;;;1.02;0.88;;;16.90;99.90;17.00;100371.00;;;;4969822;28;92489;-63